Time;durP1;ratioP1;P1;durP2;ratioP2;P2;SDS_P1;SDS_P2;PMS_P1;PMS_P2;Temp;Humidity;BMP_temperature;BMP_pressure;BME280_temperature;BME280_humidity;BME280_pressure;Samples;Min_cycle;Max_cycle;Signal;HPM_P1;HPM_P2
2023/10/29 00:02:25;;;;;;;0.95;0.63;;;14.50;88.50;;;;;;5070573;28;20063;-62
2023/10/29 00:04:50;;;;;;;0.50;0.40;;;14.50;88.50;;;;;;5070800;28;20028;-62
2023/10/29 00:07:16;;;;;;;0.82;0.60;;;14.50;88.40;;;;;;5070643;28;20028;-62
2023/10/29 00:09:42;;;;;;;0.30;0.30;;;14.50;88.40;;;;;;5068211;28;20090;-65
2023/10/29 00:12:07;;;;;;;0.28;0.28;;;14.50;88.50;;;;;;5064196;28;20089;-65
2023/10/29 00:14:33;;;;;;;1.02;0.57;;;14.50;88.40;;;;;;5066882;28;20375;-65
2023/10/29 00:16:59;;;;;;;1.08;0.50;;;14.60;88.40;;;;;;5071733;28;20049;-62
2023/10/29 00:19:25;;;;;;;0.40;0.40;;;14.60;88.40;;;;;;5080045;28;20032;-62
2023/10/29 00:21:50;;;;;;;0.40;0.40;;;14.60;88.30;;;;;;5072809;28;20036;-63
2023/10/29 00:24:16;;;;;;;0.85;0.50;;;14.60;88.40;;;;;;5063777;28;20104;-62
2023/10/29 00:26:42;;;;;;;1.45;0.40;;;14.50;88.30;;;;;;5069066;28;20086;-62
2023/10/29 00:29:07;;;;;;;0.30;0.30;;;14.50;88.40;;;;;;5069601;28;20060;-62
2023/10/29 00:31:33;;;;;;;1.25;0.73;;;14.60;88.50;;;;;;5064307;28;20078;-62
2023/10/29 00:33:59;;;;;;;0.68;0.40;;;14.60;88.50;;;;;;5075638;28;20040;-62
2023/10/29 00:36:25;;;;;;;0.50;0.50;;;14.60;88.50;;;;;;5067006;28;20431;-62
2023/10/29 00:38:51;;;;;;;0.52;0.30;;;14.60;88.50;;;;;;5070682;28;20056;-62
2023/10/29 00:41:16;;;;;;;0.30;0.30;;;14.60;88.50;;;;;;5071386;28;20063;-65
2023/10/29 00:43:45;;;;;;;0.40;0.40;;;14.60;88.50;;;;;;5074283;28;20024;-64
2023/10/29 00:46:13;;;;;;;0.30;0.30;;;14.60;88.40;;;;;;5063500;28;20037;-64
2023/10/29 00:48:39;;;;;;;0.40;0.30;;;14.60;88.50;;;;;;5069119;28;20085;-64
2023/10/29 00:51:05;;;;;;;0.73;0.60;;;14.60;88.50;;;;;;5065348;28;20503;-65
2023/10/29 00:53:33;;;;;;;0.85;0.57;;;14.60;88.50;;;;;;5068595;28;20025;-65
2023/10/29 00:55:59;;;;;;;0.50;0.50;;;14.60;88.60;;;;;;5061683;28;20036;-64
2023/10/29 00:58:26;;;;;;;0.30;0.30;;;14.60;88.70;;;;;;5062676;28;20025;-64
2023/10/29 01:00:51;;;;;;;0.57;0.30;;;14.60;88.60;;;;;;5067788;28;20052;-62
2023/10/29 01:03:18;;;;;;;0.75;0.40;;;14.70;88.60;;;;;;5070793;28;20128;-62
2023/10/29 01:05:45;;;;;;;1.33;0.55;;;14.60;88.50;;;;;;5067445;28;20399;-62
2023/10/29 01:08:12;;;;;;;0.60;0.45;;;14.70;89.30;;;;;;5068233;28;20887;-62
2023/10/29 01:10:38;;;;;;;0.38;0.30;;;14.60;88.60;;;;;;5077081;28;20341;-65
2023/10/29 01:13:04;;;;;;;0.30;0.30;;;14.60;88.60;;;;;;5066002;28;20063;-65
2023/10/29 01:15:30;;;;;;;0.30;0.20;;;14.70;88.70;;;;;;5065783;28;20033;-65
2023/10/29 01:17:56;;;;;;;0.38;0.38;;;14.70;88.60;;;;;;5064171;28;20391;-64
2023/10/29 01:20:22;;;;;;;0.32;0.32;;;14.60;88.60;;;;;;5063174;28;20029;-65
2023/10/29 01:22:48;;;;;;;0.32;0.32;;;14.70;88.60;;;;;;5064351;28;20454;-65
2023/10/29 01:25:14;;;;;;;2.50;0.45;;;14.70;88.60;;;;;;5069034;28;20032;-62
2023/10/29 01:27:39;;;;;;;0.30;0.30;;;14.70;88.60;;;;;;5063388;28;20036;-65
2023/10/29 01:30:06;;;;;;;0.28;0.25;;;14.70;88.50;;;;;;5067154;28;20037;-65
2023/10/29 01:32:32;;;;;;;0.35;0.35;;;14.80;88.40;;;;;;5064704;28;20478;-62
2023/10/29 01:34:57;;;;;;;0.40;0.40;;;14.80;88.30;;;;;;5065981;28;20387;-62
2023/10/29 01:37:23;;;;;;;0.40;0.25;;;14.80;88.20;;;;;;5071587;28;20032;-62
2023/10/29 01:39:49;;;;;;;0.28;0.28;;;14.80;88.30;;;;;;5061052;28;20116;-62
2023/10/29 01:42:15;;;;;;;0.30;0.30;;;14.80;88.20;;;;;;5082329;28;20047;-62
2023/10/29 01:44:40;;;;;;;2.22;0.32;;;14.80;88.20;;;;;;5064018;28;20060;-62
2023/10/29 01:47:06;;;;;;;0.30;0.30;;;14.80;88.20;;;;;;5066535;28;20499;-62
2023/10/29 01:49:33;;;;;;;0.30;0.30;;;14.80;88.40;;;;;;5067551;28;20377;-62
2023/10/29 01:51:59;;;;;;;0.43;0.40;;;14.80;88.50;;;;;;5081789;28;20039;-64
2023/10/29 01:54:25;;;;;;;0.25;0.20;;;14.80;88.40;;;;;;5061845;28;20036;-64
2023/10/29 01:56:50;;;;;;;0.98;0.47;;;14.80;88.40;;;;;;5065528;28;20036;-62
2023/10/29 01:59:16;;;;;;;0.30;0.30;;;14.80;88.40;;;;;;5069500;28;20079;-64
2023/10/29 02:01:42;;;;;;;2.63;0.50;;;14.80;88.50;;;;;;5065260;28;20021;-64
2023/10/29 02:04:09;;;;;;;0.20;0.20;;;14.80;88.40;;;;;;5066348;28;20100;-65
2023/10/29 02:06:38;;;;;;;1.05;0.85;;;14.80;88.40;;;;;;5065002;28;20501;-62
2023/10/29 02:09:08;;;;;;;0.32;0.32;;;14.80;88.30;;;;;;5070122;28;20036;-65
2023/10/29 02:11:35;;;;;;;0.35;0.22;;;14.80;88.30;;;;;;5072589;28;20024;-62
2023/10/29 02:14:07;;;;;;;0.32;0.30;;;14.80;88.30;;;;;;5062170;28;20415;-64
2023/10/29 02:16:33;;;;;;;0.50;0.50;;;14.80;88.20;;;;;;5085679;28;20037;-62
2023/10/29 02:18:59;;;;;;;0.45;0.45;;;14.80;88.30;;;;;;5062784;28;20502;-62
2023/10/29 02:21:25;;;;;;;0.50;0.50;;;14.80;88.40;;;;;;5044925;28;20033;-62
2023/10/29 02:23:52;;;;;;;0.63;0.40;;;14.80;88.30;;;;;;5070944;28;20033;-65
2023/10/29 02:26:18;;;;;;;1.10;0.38;;;14.80;88.20;;;;;;5068423;28;20046;-64
2023/10/29 02:28:43;;;;;;;1.13;0.65;;;14.80;88.20;;;;;;5071624;28;20037;-65
2023/10/29 02:31:19;;;;;;;0.30;0.30;;;14.90;88.20;;;;;;5065651;28;20927;-62
2023/10/29 02:33:46;;;;;;;0.60;0.35;;;14.90;88.10;;;;;;5068149;28;20029;-62
2023/10/29 02:36:12;;;;;;;0.40;0.40;;;14.90;88.10;;;;;;5062062;28;20032;-64
2023/10/29 02:38:43;;;;;;;0.40;0.40;;;14.90;88.00;;;;;;5085358;28;20085;-64
2023/10/29 02:41:09;;;;;;;0.60;0.50;;;15.00;88.00;;;;;;5070887;28;20383;-64
2023/10/29 02:43:35;;;;;;;0.32;0.32;;;15.00;87.90;;;;;;5071317;28;20020;-62
2023/10/29 02:46:01;;;;;;;2.03;0.45;;;15.00;87.80;;;;;;5066160;28;20025;-62
2023/10/29 02:48:30;;;;;;;0.50;0.50;;;15.10;87.70;;;;;;5053701;28;20422;-62
2023/10/29 02:50:55;;;;;;;1.27;0.60;;;15.10;87.70;;;;;;5068469;28;20116;-62
2023/10/29 02:53:22;;;;;;;3.50;0.57;;;15.10;87.60;;;;;;5074382;28;20116;-62
2023/10/29 02:55:48;;;;;;;1.40;0.80;;;15.20;87.50;;;;;;5074417;28;20028;-62
2023/10/29 02:58:14;;;;;;;0.93;0.30;;;15.20;87.40;;;;;;5063709;28;20488;-64
2023/10/29 03:00:39;;;;;;;2.45;0.70;;;15.20;87.30;;;;;;5072703;28;20033;-65
2023/10/29 03:03:06;;;;;;;0.60;0.50;;;15.20;87.20;;;;;;5072928;28;20028;-64
2023/10/29 03:05:32;;;;;;;0.50;0.40;;;15.20;87.10;;;;;;5068977;28;20032;-62
2023/10/29 03:07:59;;;;;;;0.90;0.52;;;15.20;87.10;;;;;;5064854;28;20021;-64
2023/10/29 03:10:26;;;;;;;0.30;0.22;;;15.20;87.00;;;;;;5072381;28;20043;-62
2023/10/29 03:12:51;;;;;;;1.65;0.73;;;15.20;86.90;;;;;;5060504;28;20067;-64
2023/10/29 03:15:17;;;;;;;0.57;0.57;;;15.20;86.90;;;;;;5070345;28;20060;-65
2023/10/29 03:17:43;;;;;;;0.40;0.40;;;15.30;86.80;;;;;;5065231;28;20103;-62
2023/10/29 03:20:11;;;;;;;1.00;0.47;;;15.20;86.70;;;;;;5066113;28;20020;-62
2023/10/29 03:22:37;;;;;;;0.40;0.40;;;15.20;86.70;;;;;;5065905;28;20428;-65
2023/10/29 03:25:02;;;;;;;0.90;0.60;;;15.20;86.60;;;;;;5071310;28;20052;-65
2023/10/29 03:27:28;;;;;;;2.40;0.40;;;15.20;86.50;;;;;;5062774;28;20261;-64
2023/10/29 03:29:54;;;;;;;0.60;0.50;;;15.20;86.20;;;;;;5071912;28;20491;-65
2023/10/29 03:32:19;;;;;;;2.78;0.35;;;15.30;85.90;;;;;;5070270;28;20514;-62
2023/10/29 03:34:45;;;;;;;0.30;0.30;;;15.30;86.00;;;;;;5066500;28;20025;-62
2023/10/29 03:37:11;;;;;;;0.60;0.50;;;15.30;85.70;;;;;;5071327;28;20380;-65
2023/10/29 03:39:36;;;;;;;0.70;0.40;;;15.20;85.60;;;;;;5061932;28;20032;-65
2023/10/29 03:42:04;;;;;;;0.55;0.50;;;15.30;85.60;;;;;;5077882;28;20400;-64
2023/10/29 03:44:29;;;;;;;0.45;0.45;;;15.30;85.10;;;;;;5056758;28;20056;-65
2023/10/29 03:46:55;;;;;;;0.70;0.43;;;15.30;85.50;;;;;;5066343;28;20495;-65
2023/10/29 03:49:21;;;;;;;1.30;0.80;;;15.30;85.30;;;;;;5062877;28;20488;-65
2023/10/29 03:51:47;;;;;;;0.35;0.30;;;15.30;85.20;;;;;;5069066;28;20056;-62
2023/10/29 03:54:13;;;;;;;0.20;0.20;;;15.30;85.10;;;;;;5059920;28;20032;-62
2023/10/29 03:56:39;;;;;;;1.38;0.93;;;15.30;85.20;;;;;;5068814;28;20040;-65
2023/10/29 03:59:05;;;;;;;0.55;0.30;;;15.30;85.00;;;;;;5057779;28;20021;-64
2023/10/29 04:01:31;;;;;;;0.22;0.20;;;15.40;85.10;;;;;;5057145;28;20031;-65
2023/10/29 04:03:57;;;;;;;1.38;0.50;;;15.40;84.90;;;;;;5057658;28;20029;-62
2023/10/29 04:06:22;;;;;;;0.28;0.20;;;15.40;84.60;;;;;;5055142;28;20364;-65
2023/10/29 04:08:48;;;;;;;1.15;0.50;;;15.40;84.50;;;;;;5062695;28;20558;-65
2023/10/29 04:11:14;;;;;;;0.20;0.20;;;15.40;84.40;;;;;;5052563;28;20448;-65
2023/10/29 04:13:40;;;;;;;0.30;0.30;;;15.40;84.50;;;;;;5060096;28;20422;-62
2023/10/29 04:16:06;;;;;;;0.63;0.30;;;15.30;84.50;;;;;;5055436;28;20178;-62
2023/10/29 04:18:33;;;;;;;0.43;0.30;;;15.30;84.50;;;;;;5056429;28;20187;-65
2023/10/29 04:21:02;;;;;;;0.63;0.60;;;15.30;84.40;;;;;;5056675;28;20039;-65
2023/10/29 04:23:28;;;;;;;0.38;0.38;;;15.30;84.40;;;;;;5058421;28;20409;-65
2023/10/29 04:25:54;;;;;;;0.60;0.40;;;15.30;84.40;;;;;;5052888;28;20072;-65
2023/10/29 04:28:20;;;;;;;0.20;0.20;;;15.30;84.40;;;;;;5055598;28;20039;-65
2023/10/29 04:30:45;;;;;;;0.68;0.40;;;15.30;84.40;;;;;;5060167;28;20471;-65
2023/10/29 04:33:11;;;;;;;0.20;0.20;;;15.30;84.40;;;;;;5053132;28;20388;-65
2023/10/29 04:35:36;;;;;;;0.20;0.20;;;15.30;84.30;;;;;;5073735;28;20376;-65
2023/10/29 04:38:02;;;;;;;1.30;0.60;;;15.30;84.40;;;;;;5064146;28;20047;-65
2023/10/29 04:40:30;;;;;;;0.73;0.57;;;15.20;84.30;;;;;;5075698;28;20518;-65
2023/10/29 04:42:56;;;;;;;0.30;0.30;;;15.20;84.30;;;;;;5072194;28;20509;-65
2023/10/29 04:45:22;;;;;;;0.28;0.25;;;15.30;84.40;;;;;;5069394;28;20025;-65
2023/10/29 04:47:47;;;;;;;0.50;0.50;;;15.30;84.40;;;;;;5069787;28;20036;-65
2023/10/29 04:50:13;;;;;;;1.20;0.35;;;15.30;84.50;;;;;;5069354;28;20139;-65
2023/10/29 04:52:39;;;;;;;0.47;0.25;;;15.30;84.50;;;;;;5068499;28;20075;-65
2023/10/29 04:55:05;;;;;;;0.43;0.40;;;15.30;84.60;;;;;;5070326;28;20024;-65
2023/10/29 04:57:31;;;;;;;4.68;0.40;;;15.30;85.10;;;;;;5070283;28;20037;-61
2023/10/29 04:59:57;;;;;;;0.20;0.20;;;15.30;84.40;;;;;;5061202;28;20056;-62
2023/10/29 05:02:23;;;;;;;0.38;0.38;;;15.30;84.40;;;;;;5051621;28;20441;-62
2023/10/29 05:04:52;;;;;;;0.95;0.60;;;15.40;84.50;;;;;;5060198;28;20049;-62
2023/10/29 05:07:18;;;;;;;1.48;0.30;;;15.40;84.50;;;;;;5063529;28;20039;-62
2023/10/29 05:09:44;;;;;;;0.98;0.47;;;15.40;84.60;;;;;;5063902;28;20379;-61
2023/10/29 05:12:09;;;;;;;0.30;0.30;;;15.30;84.70;;;;;;5064760;28;20040;-62
2023/10/29 05:14:35;;;;;;;0.60;0.60;;;15.30;84.90;;;;;;5063453;28;20029;-62
2023/10/29 05:17:02;;;;;;;0.65;0.50;;;15.30;85.00;;;;;;5062972;28;20163;-65
2023/10/29 05:19:28;;;;;;;0.47;0.35;;;15.30;85.20;;;;;;5060247;28;20028;-64
2023/10/29 05:21:55;;;;;;;0.30;0.30;;;15.30;85.50;;;;;;5058968;28;20085;-65
2023/10/29 05:24:21;;;;;;;1.10;0.52;;;15.20;85.50;;;;;;5053856;28;20041;-65
2023/10/29 05:26:47;;;;;;;0.50;0.50;;;15.20;85.70;;;;;;5045588;28;20053;-62
2023/10/29 05:29:12;;;;;;;0.32;0.30;;;15.20;85.80;;;;;;5063816;28;20040;-62
2023/10/29 05:31:38;;;;;;;0.55;0.55;;;15.10;85.90;;;;;;5065627;28;20033;-64
2023/10/29 05:34:05;;;;;;;1.80;0.65;;;15.10;86.00;;;;;;5065111;28;20261;-65
2023/10/29 05:36:31;;;;;;;0.20;0.20;;;15.10;86.00;;;;;;5065252;28;20036;-64
2023/10/29 05:38:57;;;;;;;1.35;0.38;;;15.10;86.00;;;;;;5064782;28;20029;-62
2023/10/29 05:41:25;;;;;;;0.30;0.25;;;15.10;86.10;;;;;;5067486;28;20059;-62
2023/10/29 05:43:51;;;;;;;0.43;0.32;;;15.10;86.10;;;;;;5064245;28;20032;-62
2023/10/29 05:46:18;;;;;;;0.20;0.20;;;15.00;86.10;;;;;;5064829;28;20360;-62
2023/10/29 05:48:43;;;;;;;1.27;0.50;;;15.00;86.10;;;;;;5061800;28;20056;-64
2023/10/29 05:51:12;;;;;;;0.63;0.50;;;15.00;86.10;;;;;;5063651;28;20454;-63
2023/10/29 05:53:38;;;;;;;1.02;0.38;;;15.00;86.20;;;;;;5062621;28;20472;-65
2023/10/29 05:56:05;;;;;;;0.20;0.20;;;15.00;86.30;;;;;;5063417;28;20495;-62
2023/10/29 05:58:31;;;;;;;1.42;0.30;;;14.90;86.20;;;;;;5063734;28;20028;-65
2023/10/29 06:00:57;;;;;;;0.90;0.52;;;14.90;86.30;;;;;;5066196;28;20028;-66
2023/10/29 06:03:23;;;;;;;0.25;0.25;;;14.90;86.30;;;;;;5039444;28;20499;-63
2023/10/29 06:05:49;;;;;;;1.33;0.65;;;14.90;86.20;;;;;;5063983;28;20029;-65
2023/10/29 06:08:15;;;;;;;2.15;0.50;;;14.90;85.70;;;;;;5059831;28;20082;-63
2023/10/29 06:10:40;;;;;;;5.25;0.80;;;14.90;85.20;;;;;;5067655;28;20078;-63
2023/10/29 06:13:06;;;;;;;0.30;0.30;;;14.90;84.50;;;;;;5056316;28;20033;-62
2023/10/29 06:15:32;;;;;;;0.40;0.40;;;14.90;83.90;;;;;;5059768;28;20033;-66
2023/10/29 06:17:57;;;;;;;0.35;0.35;;;14.90;83.40;;;;;;5062653;28;20036;-65
2023/10/29 06:20:23;;;;;;;0.20;0.20;;;14.90;82.60;;;;;;5061143;28;20037;-65
2023/10/29 06:22:49;;;;;;;0.30;0.30;;;14.90;82.70;;;;;;5065231;28;20093;-63
2023/10/29 06:25:17;;;;;;;0.52;0.45;;;14.80;82.50;;;;;;5067114;28;20032;-63
2023/10/29 06:27:43;;;;;;;0.30;0.30;;;14.80;81.90;;;;;;5062624;28;20449;-62
2023/10/29 06:30:13;;;;;;;0.95;0.55;;;14.90;82.20;;;;;;5067223;28;20020;-62
2023/10/29 06:32:39;;;;;;;0.60;0.40;;;14.90;82.00;;;;;;5066776;28;20111;-63
2023/10/29 06:35:05;;;;;;;1.75;0.40;;;14.90;82.00;;;;;;5060819;28;20495;-63
2023/10/29 06:37:31;;;;;;;0.43;0.22;;;14.90;82.10;;;;;;5083029;28;20697;-63
2023/10/29 06:39:57;;;;;;;1.75;0.32;;;14.90;82.20;;;;;;5059307;28;20105;-63
2023/10/29 06:42:22;;;;;;;0.75;0.45;;;14.80;81.70;;;;;;5065558;28;20040;-65
2023/10/29 06:44:48;;;;;;;0.50;0.40;;;14.80;81.80;;;;;;5072697;28;20039;-65
2023/10/29 06:47:14;;;;;;;0.47;0.45;;;14.80;81.50;;;;;;5067794;28;20044;-66
2023/10/29 06:49:41;;;;;;;2.10;0.50;;;14.80;81.70;;;;;;5066028;28;20675;-66
2023/10/29 06:52:07;;;;;;;0.80;0.60;;;14.80;81.40;;;;;;5076239;28;20066;-66
2023/10/29 06:54:34;;;;;;;3.40;0.30;;;14.80;81.60;;;;;;5068598;28;20070;-63
2023/10/29 06:56:59;;;;;;;1.02;0.40;;;14.80;81.70;;;;;;5068339;28;20035;-65
2023/10/29 06:59:25;;;;;;;1.10;0.40;;;14.80;81.60;;;;;;5064060;28;20036;-66
2023/10/29 07:01:52;;;;;;;0.30;0.30;;;14.80;81.00;;;;;;5076865;28;20032;-65
2023/10/29 07:04:18;;;;;;;0.52;0.47;;;14.70;81.20;;;;;;5069227;28;20050;-63
2023/10/29 07:06:46;;;;;;;1.27;0.38;;;14.70;81.20;;;;;;5078185;28;20020;-62
2023/10/29 07:09:15;;;;;;;0.22;0.22;;;14.70;81.20;;;;;;5072429;28;20483;-62
2023/10/29 07:11:44;;;;;;;2.50;0.30;;;14.70;81.30;;;;;;5080390;28;20090;-62
2023/10/29 07:14:09;;;;;;;1.10;0.50;;;14.70;81.40;;;;;;5077868;28;20036;-66
2023/10/29 07:16:35;;;;;;;5.15;0.47;;;14.70;81.30;;;;;;5071583;28;20174;-62
2023/10/29 07:19:01;;;;;;;2.30;0.35;;;14.80;81.30;;;;;;5074715;28;20343;-63
2023/10/29 07:21:27;;;;;;;0.40;0.40;;;14.80;81.40;;;;;;5073920;28;20028;-62
2023/10/29 07:23:53;;;;;;;2.05;0.63;;;14.80;81.40;;;;;;5065419;28;20155;-66
2023/10/29 07:26:18;;;;;;;1.17;0.40;;;14.90;81.50;;;;;;5071458;28;20557;-66
2023/10/29 07:28:44;;;;;;;3.15;0.63;;;14.90;81.50;;;;;;5065196;28;20080;-66
2023/10/29 07:31:10;;;;;;;2.28;0.60;;;14.90;81.60;;;;;;5070608;28;20029;-63
2023/10/29 07:33:35;;;;;;;0.45;0.30;;;15.00;81.40;;;;;;5066518;28;20086;-62
2023/10/29 07:36:05;;;;;;;1.10;0.60;;;15.00;81.30;;;;;;5072557;28;20040;-63
2023/10/29 07:38:30;;;;;;;2.72;0.50;;;15.10;81.20;;;;;;5071785;28;20463;-63
2023/10/29 07:40:56;;;;;;;3.70;0.77;;;15.10;81.10;;;;;;5065024;28;20044;-62
2023/10/29 07:43:22;;;;;;;0.43;0.40;;;15.20;81.10;;;;;;5070898;28;20036;-62
2023/10/29 07:45:51;;;;;;;1.13;0.63;;;15.20;80.90;;;;;;5076174;28;20388;-62
2023/10/29 07:48:18;;;;;;;0.70;0.70;;;15.20;80.60;;;;;;5066234;28;20056;-66
2023/10/29 07:50:53;;;;;;;1.95;0.52;;;15.20;80.50;;;;;;5070236;28;20612;-66
2023/10/29 07:53:19;;;;;;;1.70;0.70;;;15.20;79.90;;;;;;5058302;28;20318;-66
2023/10/29 07:55:45;;;;;;;1.55;0.75;;;15.20;80.00;;;;;;5080672;28;20033;-67
2023/10/29 07:58:10;;;;;;;0.80;0.30;;;15.20;80.20;;;;;;5077622;28;20270;-66
2023/10/29 08:00:36;;;;;;;1.60;0.55;;;15.20;79.90;;;;;;5070682;28;20574;-67
2023/10/29 08:03:02;;;;;;;1.00;0.63;;;15.20;79.80;;;;;;5071276;28;20502;-66
2023/10/29 08:05:28;;;;;;;2.05;0.38;;;15.30;79.20;;;;;;5059067;28;20381;-63
2023/10/29 08:07:53;;;;;;;1.17;0.43;;;15.30;79.10;;;;;;5064622;28;20123;-64
2023/10/29 08:10:19;;;;;;;0.95;0.68;;;15.20;79.40;;;;;;5063506;28;20033;-63
2023/10/29 08:12:45;;;;;;;1.48;1.08;;;15.20;79.10;;;;;;5063699;28;20040;-63
2023/10/29 08:15:11;;;;;;;1.25;0.65;;;15.20;79.30;;;;;;5061340;28;20388;-63
2023/10/29 08:17:36;;;;;;;1.60;0.50;;;15.20;79.40;;;;;;5068758;28;20044;-63
2023/10/29 08:20:06;;;;;;;0.95;0.25;;;15.20;79.40;;;;;;5071107;28;20451;-63
2023/10/29 08:22:32;;;;;;;6.50;0.70;;;15.30;79.30;;;;;;5075773;28;20032;-63
2023/10/29 08:24:59;;;;;;;2.78;0.60;;;15.30;78.50;;;;;;5066881;28;20514;-63
2023/10/29 08:27:25;;;;;;;0.65;0.38;;;15.30;78.80;;;;;;5066433;28;20480;-63
2023/10/29 08:29:52;;;;;;;1.15;0.57;;;15.30;78.50;;;;;;5071487;28;20047;-63
2023/10/29 08:32:18;;;;;;;1.25;0.45;;;15.40;78.50;;;;;;5063828;28;20055;-63
2023/10/29 08:34:44;;;;;;;0.60;0.43;;;15.50;78.20;;;;;;5072721;28;20025;-63
2023/10/29 08:37:13;;;;;;;3.97;1.00;;;15.50;78.40;;;;;;5062467;28;20399;-67
2023/10/29 08:39:38;;;;;;;2.47;0.60;;;15.60;78.50;;;;;;5074054;28;20149;-66
2023/10/29 08:42:04;;;;;;;3.03;1.02;;;15.70;78.50;;;;;;5087533;28;20124;-63
2023/10/29 08:44:30;;;;;;;1.65;0.95;;;15.80;77.40;;;;;;5071106;28;20024;-63
2023/10/29 08:46:57;;;;;;;5.35;0.70;;;15.80;77.10;;;;;;5085014;28;20033;-63
2023/10/29 08:49:23;;;;;;;2.78;0.95;;;15.90;77.50;;;;;;5068291;28;20070;-67
2023/10/29 08:51:49;;;;;;;2.25;0.60;;;16.00;76.90;;;;;;5071588;28;20440;-63
2023/10/29 08:54:15;;;;;;;6.03;0.70;;;16.00;76.60;;;;;;5056385;28;20037;-63
2023/10/29 08:56:41;;;;;;;2.28;0.98;;;16.10;76.70;;;;;;5053268;28;20460;-67
2023/10/29 08:59:09;;;;;;;1.98;1.17;;;16.10;75.90;;;;;;5056860;28;20037;-67
2023/10/29 09:01:35;;;;;;;4.78;0.60;;;16.20;76.00;;;;;;5068236;28;20373;-67
2023/10/29 09:04:00;;;;;;;1.27;0.57;;;16.30;75.50;;;;;;5067989;28;20050;-63
2023/10/29 09:06:27;;;;;;;2.42;0.70;;;16.30;75.00;;;;;;5065566;28;20396;-67
2023/10/29 09:08:52;;;;;;;3.78;1.25;;;16.30;74.50;;;;;;5070045;28;20032;-67
2023/10/29 09:11:18;;;;;;;2.85;0.65;;;16.40;74.50;;;;;;5070172;28;20028;-67
2023/10/29 09:13:44;;;;;;;1.67;0.95;;;16.60;74.80;;;;;;5064566;28;20020;-66
2023/10/29 09:16:10;;;;;;;3.25;0.90;;;16.80;74.00;;;;;;5073304;28;20068;-67
2023/10/29 09:18:36;;;;;;;2.30;1.02;;;16.90;73.30;;;;;;5067737;28;20051;-67
2023/10/29 09:21:02;;;;;;;1.08;0.60;;;16.90;73.10;;;;;;5075960;28;20028;-65
2023/10/29 09:23:29;;;;;;;3.47;1.15;;;17.00;72.70;;;;;;5072477;28;20040;-63
2023/10/29 09:25:55;;;;;;;8.57;0.73;;;17.10;72.40;;;;;;5060961;28;20032;-63
2023/10/29 09:28:21;;;;;;;0.85;0.52;;;17.00;72.70;;;;;;5055983;28;20033;-67
2023/10/29 09:30:47;;;;;;;1.23;0.45;;;17.00;71.50;;;;;;5058121;28;20040;-63
2023/10/29 09:33:15;;;;;;;1.13;0.47;;;16.90;70.60;;;;;;5069355;28;20497;-67
2023/10/29 09:35:41;;;;;;;0.95;0.52;;;16.90;71.20;;;;;;5058388;28;20033;-67
2023/10/29 09:38:07;;;;;;;1.65;0.82;;;16.80;70.80;;;;;;5084048;28;20036;-67
2023/10/29 09:40:33;;;;;;;3.42;0.55;;;16.80;70.40;;;;;;5067412;28;20025;-67
2023/10/29 09:43:03;;;;;;;3.65;0.68;;;16.90;70.70;;;;;;5068300;28;20024;-66
2023/10/29 09:45:32;;;;;;;3.92;0.95;;;16.90;69.30;;;;;;5063665;28;20563;-66
2023/10/29 09:47:59;;;;;;;4.05;0.88;;;16.90;69.60;;;;;;5059704;28;20025;-66
2023/10/29 09:50:25;;;;;;;2.63;0.52;;;17.00;69.30;;;;;;5050894;28;20036;-62
2023/10/29 09:52:55;;;;;;;2.97;0.90;;;17.10;69.60;;;;;;5060278;28;20033;-67
2023/10/29 09:55:22;;;;;;;2.15;0.63;;;17.20;68.90;;;;;;5053724;28;20041;-66
2023/10/29 09:57:48;;;;;;;1.65;0.30;;;17.20;68.10;;;;;;5056234;28;20052;-66
2023/10/29 10:00:15;;;;;;;0.47;0.47;;;17.20;68.20;;;;;;5055834;28;20473;-66
2023/10/29 10:02:57;;;;;;;0.77;0.50;;;17.00;66.60;;;;;;5055989;28;20024;-66
2023/10/29 10:05:24;;;;;;;2.30;0.65;;;17.00;66.60;;;;;;5055461;28;20032;-66
2023/10/29 10:07:57;;;;;;;0.75;0.63;;;17.00;67.40;;;;;;5071863;28;20055;-66
2023/10/29 10:10:42;;;;;;;2.30;0.60;;;17.20;67.20;;;;;;5056601;28;20037;-66
2023/10/29 10:13:09;;;;;;;2.05;0.60;;;17.50;66.50;;;;;;5065292;28;20033;-66
2023/10/29 10:15:35;;;;;;;0.57;0.57;;;17.70;65.80;;;;;;5072914;28;20036;-62
2023/10/29 10:18:06;;;;;;;0.88;0.50;;;17.80;65.20;;;;;;5068111;28;20588;-62
2023/10/29 10:20:35;;;;;;;0.95;0.47;;;17.90;65.70;;;;;;5070861;28;20398;-62
2023/10/29 10:23:03;;;;;;;1.35;0.93;;;17.90;64.40;;;;;;5057228;28;20086;-62
2023/10/29 10:25:31;;;;;;;2.38;0.40;;;17.70;64.10;;;;;;5062896;28;20036;-62
2023/10/29 10:27:58;;;;;;;1.75;0.50;;;17.60;65.20;;;;;;5064878;28;20040;-62
2023/10/29 10:30:30;;;;;;;0.65;0.65;;;17.50;65.50;;;;;;5072065;28;20075;-66
2023/10/29 10:33:09;;;;;;;2.33;0.60;;;17.40;65.40;;;;;;5067047;28;20052;-66
2023/10/29 10:35:56;;;;;;;1.85;0.52;;;17.20;64.60;;;;;;5068055;28;20441;-66
2023/10/29 10:38:22;;;;;;;1.67;0.50;;;17.10;65.70;;;;;;5068116;28;20040;-62
2023/10/29 10:41:01;;;;;;;8.23;1.15;;;16.90;66.30;;;;;;5069958;28;20384;-62
2023/10/29 10:43:28;;;;;;;0.70;0.40;;;16.80;65.50;;;;;;5068812;28;20090;-65
2023/10/29 10:45:55;;;;;;;0.63;0.40;;;16.80;66.50;;;;;;5070515;28;20032;-66
2023/10/29 10:48:21;;;;;;;0.50;0.40;;;16.80;66.70;;;;;;5067548;28;20123;-61
2023/10/29 10:50:47;;;;;;;0.90;0.70;;;16.80;66.70;;;;;;5067176;28;20458;-69
2023/10/29 10:53:16;;;;;;;2.05;1.00;;;16.80;66.30;;;;;;5063954;28;20025;-64
2023/10/29 10:55:43;;;;;;;2.53;0.63;;;17.10;66.10;;;;;;5068000;28;20086;-62
2023/10/29 10:58:12;;;;;;;1.17;0.47;;;17.30;65.40;;;;;;5067654;28;20475;-68
2023/10/29 11:00:38;;;;;;;5.93;1.00;;;17.40;64.50;;;;;;5073739;28;20058;-70
2023/10/29 11:03:05;;;;;;;1.08;0.60;;;17.60;64.30;;;;;;5066239;28;20025;-70
2023/10/29 11:05:33;;;;;;;0.70;0.50;;;17.60;64.40;;;;;;5064039;28;20825;-71
2023/10/29 11:08:00;;;;;;;1.15;0.70;;;17.60;64.40;;;;;;5065883;28;20043;-70
2023/10/29 11:10:26;;;;;;;2.22;0.60;;;17.50;64.80;;;;;;5062254;28;20665;-70
2023/10/29 11:12:52;;;;;;;4.10;0.60;;;17.60;65.10;;;;;;5056434;28;20119;-70
2023/10/29 11:15:22;;;;;;;0.57;0.45;;;17.50;64.20;;;;;;5058210;28;20105;-70
2023/10/29 11:17:57;;;;;;;1.45;1.05;;;17.30;64.10;;;;;;5064438;28;20063;-63
2023/10/29 11:20:38;;;;;;;3.95;1.08;;;17.10;64.90;;;;;;5055670;28;20025;-63
2023/10/29 11:23:13;;;;;;;1.05;0.70;;;17.10;64.80;;;;;;5054073;28;20082;-63
2023/10/29 11:25:39;;;;;;;2.30;0.45;;;16.90;65.40;;;;;;5057383;28;20025;-63
2023/10/29 11:28:05;;;;;;;3.80;0.77;;;16.80;66.00;;;;;;5086702;28;20025;-63
2023/10/29 11:30:31;;;;;;;1.33;0.90;;;16.80;66.20;;;;;;5067030;28;20549;-63
2023/10/29 11:33:06;;;;;;;1.60;0.60;;;16.80;66.40;;;;;;5075807;28;20093;-70
2023/10/29 11:35:33;;;;;;;1.45;0.80;;;16.80;66.40;;;;;;5065434;28;20059;-63
2023/10/29 11:38:00;;;;;;;3.20;0.57;;;16.80;66.90;;;;;;5067204;28;20047;-63
2023/10/29 11:40:30;;;;;;;4.97;0.93;;;16.80;66.70;;;;;;5056213;28;20025;-63
2023/10/29 11:43:13;;;;;;;2.33;0.50;;;16.70;66.90;;;;;;5047182;28;20037;-63
2023/10/29 11:45:39;;;;;;;1.10;0.70;;;16.70;67.30;;;;;;5061690;28;20028;-62
2023/10/29 11:48:17;;;;;;;1.10;0.70;;;16.60;67.70;;;;;;5066166;28;20036;-63
2023/10/29 11:51:05;;;;;;;1.20;0.50;;;16.60;67.70;;;;;;5065485;28;20562;-72
2023/10/29 11:53:32;;;;;;;2.97;0.63;;;16.70;68.50;;;;;;5064958;28;20033;-63
2023/10/29 11:56:04;;;;;;;0.88;0.65;;;16.70;68.20;;;;;;5066988;28;20039;-70
2023/10/29 11:58:30;;;;;;;1.35;0.40;;;16.80;68.20;;;;;;5053695;28;20398;-69
2023/10/29 12:00:57;;;;;;;2.67;1.05;;;16.80;68.30;;;;;;5070497;28;20024;-70
2023/10/29 12:03:23;;;;;;;2.53;0.40;;;16.80;68.50;;;;;;5071247;28;20048;-70
2023/10/29 12:05:49;;;;;;;1.27;0.90;;;16.80;68.90;;;;;;5070799;28;20025;-70
2023/10/29 12:08:15;;;;;;;3.17;0.73;;;16.80;69.10;;;;;;5077924;28;20110;-63
2023/10/29 12:10:58;;;;;;;0.60;0.52;;;16.90;69.30;;;;;;5056083;28;20028;-63
2023/10/29 12:13:23;;;;;;;0.82;0.80;;;17.00;69.50;;;;;;5062525;28;20485;-70
2023/10/29 12:16:02;;;;;;;1.00;0.57;;;17.40;69.30;;;;;;5064607;28;20045;-70
2023/10/29 12:18:27;;;;;;;7.45;0.95;;;18.80;67.00;;;;;;5067874;28;20376;-70
2023/10/29 12:21:07;;;;;;;2.38;0.82;;;21.10;61.90;;;;;;5065327;28;20297;-64
2023/10/29 12:23:35;;;;;;;1.65;0.70;;;23.70;55.20;;;;;;5052127;28;20040;-63
2023/10/29 12:26:04;;;;;;;1.92;1.23;;;25.40;52.50;;;;;;5061668;28;20718;-71
2023/10/29 12:28:31;;;;;;;1.48;0.47;;;26.50;47.70;;;;;;5056334;28;20492;-63
2023/10/29 12:30:57;;;;;;;2.92;0.60;;;25.40;48.40;;;;;;5055471;28;20411;-70
2023/10/29 12:33:25;;;;;;;4.97;0.80;;;23.90;50.80;;;;;;5057636;28;20025;-63
2023/10/29 12:35:56;;;;;;;0.85;0.70;;;22.60;53.20;;;;;;5073624;28;20393;-71
2023/10/29 12:38:22;;;;;;;1.45;0.73;;;21.40;55.70;;;;;;5071760;28;20028;-70
2023/10/29 12:41:19;;;;;;;3.88;1.65;;;20.60;57.40;;;;;;5068439;28;20066;-70
2023/10/29 12:43:47;;;;;;;4.68;0.80;;;20.00;58.80;;;;;;5046955;28;20051;-70
2023/10/29 12:46:15;;;;;;;3.85;1.17;;;19.80;59.90;;;;;;5060506;28;20048;-63
2023/10/29 12:49:03;;;;;;;1.10;0.45;;;19.90;58.80;;;;;;5065554;28;20021;-70